Time;durP1;ratioP1;P1;durP2;ratioP2;P2;SDS_P1;SDS_P2;PMS_P1;PMS_P2;Temp;Humidity;BMP_temperature;BMP_pressure;BME280_temperature;BME280_humidity;BME280_pressure;Samples;Min_cycle;Max_cycle;Signal;HPM_P1;HPM_P2
2021/03/30 00:01:20;;;;;;;;;;;;;;;5.17;94.40;102668.38;1860189;77;20302;-80
2021/03/30 00:03:48;;;;;;;;;;;;;;;5.12;94.61;102666.27;1860502;77;22081;-77
2021/03/30 00:06:17;;;;;;;;;;;;;;;5.10;94.93;102667.59;1860192;77;20215;-79
2021/03/30 00:08:45;;;;;;;;;;;;;;;5.09;95.06;102665.02;1860143;77;20160;-77
2021/03/30 00:11:13;;;;;;;;;;;;;;;5.05;94.96;102669.77;1860408;77;20894;-77
2021/03/30 00:13:42;;;;;;;;;;;;;;;5.01;95.06;102675.39;1860538;77;20723;-75
2021/03/30 00:16:10;;;;;;;;;;;;;;;4.97;95.25;102672.45;1860145;77;21234;-80
2021/03/30 00:18:38;;;;;;;;;;;;;;;4.94;95.36;102675.06;1860005;77;20124;-77
2021/03/30 00:21:07;;;;;;;;;;;;;;;4.92;95.50;102677.20;1860205;77;20207;-79
2021/03/30 00:23:35;;;;;;;;;;;;;;;4.88;95.76;102675.13;1860138;77;20152;-77
2021/03/30 00:26:04;;;;;;;;;;;;;;;4.88;95.91;102679.41;1860125;77;20870;-76
2021/03/30 00:28:32;;;;;;;;;;;;;;;4.85;95.96;102673.84;1860145;77;22205;-77
2021/03/30 00:30:59;;;;;;;;;;;;;;;4.83;96.13;102676.02;1860124;77;20498;-76
2021/03/30 00:33:27;;;;;;;;;;;;;;;4.82;96.23;102673.05;1860194;77;20197;-77
2021/03/30 00:35:55;;;;;;;;;;;;;;;4.82;96.36;102676.91;1864316;76;20206;-77
2021/03/30 00:38:23;;;;;;;;;;;;;;;4.79;96.34;102670.05;1867948;77;20215;-77
2021/03/30 00:40:52;;;;;;;;;;;;;;;4.77;96.48;102675.23;1868061;77;21191;-77
2021/03/30 00:43:20;;;;;;;;;;;;;;;4.77;96.66;102679.08;1867924;77;20302;-82
2021/03/30 00:45:51;;;;;;;;;;;;;;;4.79;96.86;102670.91;1868553;77;20203;-74
2021/03/30 00:48:26;;;;;;;;;;;;;;;4.81;96.85;102672.19;1868134;77;20139;-79
2021/03/30 00:50:55;;;;;;;;;;;;;;;4.83;96.67;102669.16;1867877;77;20182;-76
2021/03/30 00:53:42;;;;;;;;;;;;;;;4.83;96.56;102665.30;1867997;77;20928;-75
2021/03/30 00:56:19;;;;;;;;;;;;;;;4.81;96.56;102676.05;1867255;77;20564;-76
2021/03/30 00:58:47;;;;;;;;;;;;;;;4.79;96.48;102673.91;1867910;77;20219;-78
2021/03/30 01:01:16;;;;;;;;;;;;;;;4.77;96.65;102674.37;1868061;77;20242;-80
2021/03/30 01:03:44;;;;;;;;;;;;;;;4.76;96.63;102668.37;1868116;77;20212;-81
2021/03/30 01:06:11;;;;;;;;;;;;;;;4.75;96.69;102674.37;1868109;77;22284;-77
2021/03/30 01:09:09;;;;;;;;;;;;;;;4.74;96.64;102682.12;1868035;77;20215;-77
2021/03/30 01:11:46;;;;;;;;;;;;;;;4.70;96.63;102673.58;1797864;79;20530;-82
2021/03/30 01:14:34;;;;;;;;;;;;;;;4.66;96.68;102673.17;1797799;80;20192;-75
2021/03/30 01:17:19;;;;;;;;;;;;;;;4.62;96.65;102672.81;1838163;77;20211;-76
2021/03/30 01:20:05;;;;;;;;;;;;;;;4.58;96.75;102671.13;1825389;78;21195;-77
2021/03/30 01:22:53;;;;;;;;;;;;;;;4.53;97.06;102670.76;1833828;78;20205;-77
2021/03/30 01:25:21;;;;;;;;;;;;;;;4.50;97.20;102672.07;1833728;78;20149;-76
2021/03/30 01:28:19;;;;;;;;;;;;;;;4.47;97.33;102671.64;1834115;78;20197;-76
2021/03/30 01:30:48;;;;;;;;;;;;;;;4.45;97.66;102673.39;1833926;78;20261;-76
2021/03/30 01:33:16;;;;;;;;;;;;;;;4.45;97.91;102664.39;1833816;78;21750;-76
2021/03/30 01:35:43;;;;;;;;;;;;;;;4.45;97.94;102669.95;1808615;78;20169;-76
2021/03/30 01:38:11;;;;;;;;;;;;;;;4.44;98.16;102670.38;1834031;78;20185;-77
2021/03/30 01:40:54;;;;;;;;;;;;;;;4.44;98.11;102675.95;1833744;78;20237;-77
2021/03/30 01:43:22;;;;;;;;;;;;;;;4.44;98.14;102678.52;1833762;78;20237;-77
2021/03/30 01:45:54;;;;;;;;;;;;;;;4.43;98.00;102680.70;1833857;78;21309;-79
2021/03/30 01:48:23;;;;;;;;;;;;;;;4.41;97.98;102679.84;1834316;78;20130;-76
2021/03/30 01:50:52;;;;;;;;;;;;;;;4.40;97.95;102677.73;1833876;78;20123;-76
2021/03/30 01:53:21;;;;;;;;;;;;;;;4.38;97.96;102687.58;1834085;78;20830;-77
2021/03/30 01:55:52;;;;;;;;;;;;;;;4.35;97.97;102683.75;1833770;78;20237;-77
2021/03/30 01:58:20;;;;;;;;;;;;;;;4.31;97.95;102684.20;1833872;78;21243;-76
2021/03/30 02:00:50;;;;;;;;;;;;;;;4.31;98.12;102689.34;1833774;78;20217;-75
2021/03/30 02:03:19;;;;;;;;;;;;;;;4.30;98.10;102686.80;1834080;78;20165;-76
2021/03/30 02:05:47;;;;;;;;;;;;;;;4.27;98.24;102685.11;1833710;78;20301;-77
2021/03/30 02:08:15;;;;;;;;;;;;;;;4.25;98.22;102689.39;1833937;78;20229;-80
2021/03/30 02:10:52;;;;;;;;;;;;;;;4.21;98.34;102688.56;1833907;78;21198;-76
2021/03/30 02:13:39;;;;;;;;;;;;;;;4.20;98.67;102686.02;1834012;78;20499;-78
2021/03/30 02:16:07;;;;;;;;;;;;;;;4.21;98.82;102685.98;1832842;78;20280;-75
2021/03/30 02:18:48;;;;;;;;;;;;;;;4.22;98.94;102684.28;1834453;76;20794;-77
2021/03/30 02:21:28;;;;;;;;;;;;;;;4.22;98.89;102688.13;1835918;78;20287;-76
2021/03/30 02:23:55;;;;;;;;;;;;;;;4.21;98.73;102687.73;1799566;79;21190;-80
2021/03/30 02:26:23;;;;;;;;;;;;;;;4.18;98.74;102683.91;1815875;79;20221;-75
2021/03/30 02:28:54;;;;;;;;;;;;;;;4.18;98.96;102686.47;1816024;79;20129;-78
2021/03/30 02:31:22;;;;;;;;;;;;;;;4.17;98.89;102694.61;1799356;79;20990;-83
2021/03/30 02:33:52;;;;;;;;;;;;;;;4.17;98.89;102692.04;1816060;79;20279;-79
2021/03/30 02:36:47;;;;;;;;;;;;;;;4.16;99.08;102690.33;1816281;79;21246;-79
2021/03/30 02:39:15;;;;;;;;;;;;;;;4.14;98.97;102695.06;1816264;79;20212;-76
2021/03/30 02:41:43;;;;;;;;;;;;;;;4.13;98.97;102695.91;1815709;79;20231;-75
2021/03/30 02:44:11;;;;;;;;;;;;;;;4.12;98.92;102698.05;1816107;79;20227;-76
2021/03/30 02:46:40;;;;;;;;;;;;;;;4.10;99.13;102704.92;1815802;79;20339;-76
2021/03/30 02:49:10;;;;;;;;;;;;;;;4.09;99.20;102700.64;1816551;79;22293;-76
2021/03/30 02:51:38;;;;;;;;;;;;;;;4.09;99.24;102705.78;1816013;79;20145;-79
2021/03/30 02:54:09;;;;;;;;;;;;;;;4.08;99.28;102700.24;1815979;79;20577;-75
2021/03/30 02:56:38;;;;;;;;;;;;;;;4.09;99.41;102698.07;1799345;79;20399;-76
2021/03/30 02:59:06;;;;;;;;;;;;;;;4.08;99.39;102686.97;1815938;79;20247;-77
2021/03/30 03:01:35;;;;;;;;;;;;;;;4.09;99.51;102691.65;1815887;79;21186;-77
2021/03/30 03:04:04;;;;;;;;;;;;;;;4.10;99.42;102696.80;1822680;78;20131;-76
2021/03/30 03:06:32;;;;;;;;;;;;;;;4.10;99.58;102695.94;1815990;79;20128;-77
2021/03/30 03:09:01;;;;;;;;;;;;;;;4.13;99.50;102704.48;1815800;79;20188;-86
2021/03/30 03:11:29;;;;;;;;;;;;;;;4.12;99.41;102707.05;1815916;79;20137;-79
2021/03/30 03:13:57;;;;;;;;;;;;;;;4.11;99.39;102706.22;1816182;79;22148;-77
2021/03/30 03:16:24;;;;;;;;;;;;;;;4.11;99.30;102702.79;1816016;79;20216;-78
2021/03/30 03:18:52;;;;;;;;;;;;;;;4.10;99.29;102706.21;1815683;78;20188;-76
2021/03/30 03:21:24;;;;;;;;;;;;;;;4.07;99.21;102704.52;1816497;79;20152;-77
2021/03/30 03:23:52;;;;;;;;;;;;;;;4.05;99.19;102703.66;1816024;79;20299;-80
2021/03/30 03:26:20;;;;;;;;;;;;;;;4.02;99.17;102707.53;1815795;79;21255;-76
2021/03/30 03:28:48;;;;;;;;;;;;;;;3.98;99.08;102711.01;1815930;79;20235;-79
2021/03/30 03:31:16;;;;;;;;;;;;;;;3.93;99.09;102715.30;1816164;79;20149;-79
2021/03/30 03:33:45;;;;;;;;;;;;;;;3.88;99.22;102716.20;1816069;79;20129;-83
2021/03/30 03:36:14;;;;;;;;;;;;;;;3.86;99.48;102720.05;1816164;79;20224;-76
2021/03/30 03:38:43;;;;;;;;;;;;;;;3.83;99.52;102722.63;1815638;79;21192;-77
2021/03/30 03:41:14;;;;;;;;;;;;;;;3.83;99.61;102729.51;1815812;79;20283;-79
2021/03/30 03:43:43;;;;;;;;;;;;;;;3.80;99.79;102728.24;1815827;79;20608;-77
2021/03/30 03:46:16;;;;;;;;;;;;;;;3.78;99.93;102733.38;1815938;79;20287;-78
2021/03/30 03:48:46;;;;;;;;;;;;;;;3.76;99.91;102731.25;1815701;79;20298;-77
2021/03/30 03:51:15;;;;;;;;;;;;;;;3.73;99.89;102728.24;1799434;79;24455;-77
2021/03/30 03:53:43;;;;;;;;;;;;;;;3.71;100.00;102734.25;1841897;77;20176;-76
2021/03/30 03:56:11;;;;;;;;;;;;;;;3.71;100.00;102734.25;1815807;79;20226;-77
2021/03/30 03:58:41;;;;;;;;;;;;;;;3.70;100.00;102728.26;1815738;79;20311;-76
2021/03/30 04:01:11;;;;;;;;;;;;;;;3.70;100.00;102731.28;1815925;79;20306;-78
2021/03/30 04:03:51;;;;;;;;;;;;;;;3.73;100.00;102737.23;1815809;79;22540;-77
2021/03/30 04:06:22;;;;;;;;;;;;;;;3.77;100.00;102743.20;1816026;79;20498;-77
2021/03/30 04:08:52;;;;;;;;;;;;;;;3.81;100.00;102743.62;1815619;79;20203;-78
2021/03/30 04:11:20;;;;;;;;;;;;;;;3.83;100.00;102747.03;1799463;79;20242;-79
2021/03/30 04:13:49;;;;;;;;;;;;;;;3.84;100.00;102748.75;1816017;79;20133;-76
2021/03/30 04:16:17;;;;;;;;;;;;;;;3.86;100.00;102753.43;1799451;79;21196;-77
2021/03/30 04:18:45;;;;;;;;;;;;;;;3.87;100.00;102760.71;1815717;79;20585;-76
2021/03/30 04:21:31;;;;;;;;;;;;;;;3.88;100.00;102759.86;1799497;79;20221;-79
2021/03/30 04:23:59;;;;;;;;;;;;;;;3.89;100.00;102763.72;1815833;79;20257;-77
2021/03/30 04:26:31;;;;;;;;;;;;;;;3.88;100.00;102767.14;1815770;78;20176;-77
2021/03/30 04:28:59;;;;;;;;;;;;;;;3.87;99.91;102764.56;1815972;78;20656;-78
2021/03/30 04:31:27;;;;;;;;;;;;;;;3.86;99.87;102763.70;1815797;79;20224;-76
2021/03/30 04:33:55;;;;;;;;;;;;;;;3.86;99.82;102769.30;1815479;79;20160;-78
2021/03/30 04:36:23;;;;;;;;;;;;;;;3.85;99.84;102763.30;1815743;79;20218;-77
2021/03/30 04:38:53;;;;;;;;;;;;;;;3.86;99.82;102767.56;1799379;79;20268;-77
2021/03/30 04:41:20;;;;;;;;;;;;;;;3.88;99.92;102776.55;1815739;79;21363;-77
2021/03/30 04:43:48;;;;;;;;;;;;;;;3.92;99.91;102774.41;1815987;79;20190;-78
2021/03/30 04:46:16;;;;;;;;;;;;;;;3.93;99.81;102771.81;1815886;79;20133;-76
2021/03/30 04:48:44;;;;;;;;;;;;;;;3.94;99.81;102773.95;1815794;79;20510;-77
2021/03/30 04:51:12;;;;;;;;;;;;;;;3.97;99.82;102780.36;1799190;79;20245;-77
2021/03/30 04:53:39;;;;;;;;;;;;;;;3.99;99.85;102784.62;1816034;79;21047;-76
2021/03/30 04:56:07;;;;;;;;;;;;;;;4.03;100.00;102788.89;1815579;79;20236;-80
2021/03/30 04:58:35;;;;;;;;;;;;;;;4.07;99.92;102786.73;1815590;79;20216;-77
2021/03/30 05:01:03;;;;;;;;;;;;;;;4.13;99.82;102792.27;1815862;79;20212;-77
2021/03/30 05:03:31;;;;;;;;;;;;;;;4.17;99.79;102787.54;1823114;78;20495;-76
2021/03/30 05:06:00;;;;;;;;;;;;;;;4.24;99.80;102789.22;1815877;79;21189;-79
2021/03/30 05:08:28;;;;;;;;;;;;;;;4.30;99.70;102787.89;1816130;79;20204;-80
2021/03/30 05:10:55;;;;;;;;;;;;;;;4.36;99.65;102787.84;1815988;79;20216;-79
2021/03/30 05:13:23;;;;;;;;;;;;;;;4.42;99.49;102790.80;1799460;78;20763;-76
2021/03/30 05:15:50;;;;;;;;;;;;;;;4.47;99.38;102794.18;1815904;78;20240;-78
2021/03/30 05:18:18;;;;;;;;;;;;;;;4.51;99.32;102792.87;1815949;79;21197;-76
2021/03/30 05:20:46;;;;;;;;;;;;;;;4.58;99.30;102800.12;1815888;78;20133;-81
2021/03/30 05:23:15;;;;;;;;;;;;;;;4.64;99.31;102800.92;1799697;79;20489;-78
2021/03/30 05:25:42;;;;;;;;;;;;;;;4.72;99.28;102796.56;1816353;78;20283;-76
2021/03/30 05:28:10;;;;;;;;;;;;;;;4.82;99.26;102798.63;1799431;79;20279;-78
2021/03/30 05:30:38;;;;;;;;;;;;;;;4.91;98.94;102797.30;1815962;78;22176;-76
2021/03/30 05:33:08;;;;;;;;;;;;;;;4.99;98.69;102795.49;1815941;78;20288;-77
2021/03/30 05:35:36;;;;;;;;;;;;;;;5.05;98.39;102798.44;1815796;78;20133;-76
2021/03/30 05:38:04;;;;;;;;;;;;;;;5.10;98.37;102797.55;1815936;79;20766;-78
2021/03/30 05:40:33;;;;;;;;;;;;;;;5.17;98.36;102788.87;1815893;78;20239;-77
2021/03/30 05:43:02;;;;;;;;;;;;;;;5.26;98.25;102795.22;1815955;79;22584;-77
2021/03/30 05:45:32;;;;;;;;;;;;;;;5.33;98.09;102798.15;1815545;78;20137;-78
2021/03/30 05:47:59;;;;;;;;;;;;;;;5.43;97.94;102800.19;1842370;76;20287;-77
2021/03/30 05:50:34;;;;;;;;;;;;;;;5.53;97.67;102809.53;1799612;79;20835;-82
2021/03/30 05:53:05;;;;;;;;;;;;;;;5.62;97.30;102813.72;1806948;77;20222;-76
2021/03/30 05:55:36;;;;;;;;;;;;;;;5.70;96.68;102808.92;1805106;79;21408;-82
2021/03/30 05:58:06;;;;;;;;;;;;;;;5.78;96.28;102799.79;1783574;79;20222;-79
2021/03/30 06:00:36;;;;;;;;;;;;;;;5.84;95.98;102799.70;1767861;79;20260;-76
2021/03/30 06:03:07;;;;;;;;;;;;;;;5.91;95.84;102797.52;1784030;80;20844;-78
2021/03/30 06:05:34;;;;;;;;;;;;;;;5.99;95.64;102797.00;1767839;79;20585;-76
2021/03/30 06:08:03;;;;;;;;;;;;;;;6.10;95.02;102798.12;1783809;79;21191;-76
2021/03/30 06:10:32;;;;;;;;;;;;;;;6.20;94.08;102799.27;1767774;79;20444;-75
2021/03/30 06:13:03;;;;;;;;;;;;;;;6.35;93.76;102800.77;1783617;79;20202;-79
2021/03/30 06:15:47;;;;;;;;;;;;;;;6.54;92.50;102809.94;1771861;77;20282;-78
2021/03/30 06:18:22;;;;;;;;;;;;;;;6.73;91.60;102799.75;1769261;79;20419;-79
2021/03/30 06:20:50;;;;;;;;;;;;;;;6.99;90.42;102803.66;1814092;78;21806;-78
2021/03/30 06:23:26;;;;;;;;;;;;;;;7.23;89.58;102802.78;1814769;78;20187;-78
2021/03/30 06:25:55;;;;;;;;;;;;;;;7.52;89.12;102800.94;1813786;78;20582;-76
2021/03/30 06:28:56;;;;;;;;;;;;;;;7.85;88.35;102801.98;1814656;77;20605;-77
2021/03/30 06:31:24;;;;;;;;;;;;;;;8.15;85.15;102801.78;1814835;78;20317;-75
2021/03/30 06:33:56;;;;;;;;;;;;;;;8.29;83.53;102805.81;1764839;80;22111;-79
2021/03/30 06:36:30;;;;;;;;;;;;;;;8.40;82.76;102809.44;1779280;80;20675;-78
2021/03/30 06:39:07;;;;;;;;;;;;;;;8.46;81.87;102801.53;1779162;80;20192;-79
2021/03/30 06:41:50;;;;;;;;;;;;;;;8.54;81.35;102806.09;1782332;79;20719;-77
2021/03/30 06:44:26;;;;;;;;;;;;;;;8.57;80.20;102806.02;1790786;79;20368;-76
2021/03/30 06:47:14;;;;;;;;;;;;;;;8.61;80.12;102805.07;1811048;78;22112;-76
2021/03/30 06:49:58;;;;;;;;;;;;;;;8.74;80.14;102806.92;1801896;79;20312;-77
2021/03/30 06:52:39;;;;;;;;;;;;;;;8.89;78.93;102803.95;1815700;78;20325;-76
2021/03/30 06:55:16;;;;;;;;;;;;;;;9.05;78.19;102807.85;1845603;77;20775;-76
2021/03/30 06:57:48;;;;;;;;;;;;;;;9.20;77.19;102802.27;1828504;77;20335;-75
2021/03/30 07:00:30;;;;;;;;;;;;;;;9.30;76.68;102811.50;1814411;78;21142;-76
2021/03/30 07:03:02;;;;;;;;;;;;;;;9.39;76.34;102804.78;1814424;78;20280;-76
2021/03/30 07:05:39;;;;;;;;;;;;;;;9.51;75.10;102816.53;1814344;78;20248;-76
2021/03/30 07:08:12;;;;;;;;;;;;;;;9.48;75.02;102817.92;1814063;78;20487;-74
2021/03/30 07:10:45;;;;;;;;;;;;;;;9.38;74.33;102808.25;1813913;78;20323;-77
2021/03/30 07:13:15;;;;;;;;;;;;;;;9.29;74.92;102811.53;1814116;78;21349;-76
2021/03/30 07:15:44;;;;;;;;;;;;;;;9.21;75.46;102816.93;1813593;79;20422;-76
2021/03/30 07:18:31;;;;;;;;;;;;;;;9.17;75.89;102820.48;1814945;78;20234;-79
2021/03/30 07:21:04;;;;;;;;;;;;;;;9.10;75.21;102821.96;1822853;77;20314;-75
2021/03/30 07:23:33;;;;;;;;;;;;;;;9.03;75.89;102820.83;1827002;77;20313;-76
2021/03/30 07:26:21;;;;;;;;;;;;;;;8.99;75.90;102821.81;1827230;77;20607;-76
2021/03/30 07:28:55;;;;;;;;;;;;;;;8.96;76.56;102830.10;1827152;77;20595;-73
2021/03/30 07:31:29;;;;;;;;;;;;;;;9.00;76.91;102825.23;1825598;78;20277;-75
2021/03/30 07:34:03;;;;;;;;;;;;;;;9.13;76.02;102833.09;1826629;78;20361;-75
2021/03/30 07:36:34;;;;;;;;;;;;;;;9.30;74.73;102830.94;1827163;78;20742;-74
2021/03/30 07:39:04;;;;;;;;;;;;;;;9.50;72.87;102836.45;1826792;77;21608;-80
2021/03/30 07:41:32;;;;;;;;;;;;;;;9.64;71.37;102823.09;1827089;78;20226;-76
2021/03/30 07:44:03;;;;;;;;;;;;;;;9.67;70.20;102828.19;1827321;78;20266;-75
2021/03/30 07:46:33;;;;;;;;;;;;;;;9.65;70.35;102835.17;1827095;78;20305;-75
2021/03/30 07:49:03;;;;;;;;;;;;;;;9.67;70.24;102836.44;1827353;78;20512;-77
2021/03/30 07:51:36;;;;;;;;;;;;;;;9.68;69.48;102832.48;1826865;77;21175;-74
2021/03/30 07:54:09;;;;;;;;;;;;;;;9.68;70.27;102840.27;1826476;77;20332;-75
2021/03/30 07:56:44;;;;;;;;;;;;;;;9.80;70.91;102836.47;1826892;78;20321;-75
2021/03/30 07:59:50;;;;;;;;;;;;;;;9.88;70.23;102837.98;1826903;78;20277;-75
2021/03/30 08:02:23;;;;;;;;;;;;;;;9.98;69.06;102841.16;1826753;77;20293;-75
2021/03/30 08:05:06;;;;;;;;;;;;;;;10.10;68.64;102842.94;1827177;78;21140;-74
2021/03/30 08:07:53;;;;;;;;;;;;;;;10.21;68.17;102847.00;1826587;77;20925;-76
2021/03/30 08:10:45;;;;;;;;;;;;;;;10.27;66.10;102846.38;1827360;77;20512;-76
2021/03/30 08:13:32;;;;;;;;;;;;;;;10.29;67.19;102844.57;1826185;77;20838;-80
2021/03/30 08:16:04;;;;;;;;;;;;;;;10.43;66.70;102848.05;1826952;77;20305;-76
2021/03/30 08:18:35;;;;;;;;;;;;;;;10.48;66.22;102850.91;1826940;77;21258;-77
2021/03/30 08:21:07;;;;;;;;;;;;;;;10.53;66.68;102855.49;1821459;78;20301;-78
2021/03/30 08:23:56;;;;;;;;;;;;;;;10.58;66.75;102857.52;1816621;77;20329;-74
2021/03/30 08:26:35;;;;;;;;;;;;;;;10.58;66.16;102848.43;1817300;77;20290;-75
2021/03/30 08:29:13;;;;;;;;;;;;;;;10.57;66.46;102857.55;1817352;78;20325;-74
2021/03/30 08:31:47;;;;;;;;;;;;;;;10.63;66.99;102855.61;1816876;77;21797;-76
2021/03/30 08:34:17;;;;;;;;;;;;;;;10.78;67.22;102856.89;1819395;77;20184;-75
2021/03/30 08:36:55;;;;;;;;;;;;;;;10.96;66.47;102855.43;1809002;78;20318;-76
2021/03/30 08:39:28;;;;;;;;;;;;;;;11.05;65.74;102854.68;1792644;78;21004;-77
2021/03/30 08:42:01;;;;;;;;;;;;;;;11.13;65.57;102857.03;1794477;78;20289;-76
2021/03/30 08:44:50;;;;;;;;;;;;;;;11.20;64.89;102854.61;1793619;79;22659;-75
2021/03/30 08:47:34;;;;;;;;;;;;;;;11.24;63.62;102849.71;1812711;78;20307;-76
2021/03/30 08:50:22;;;;;;;;;;;;;;;11.27;63.54;102851.34;1816838;77;20290;-77
2021/03/30 08:52:57;;;;;;;;;;;;;;;11.36;63.77;102840.66;1817388;78;20273;-75
2021/03/30 08:55:30;;;;;;;;;;;;;;;11.38;63.71;102842.75;1817115;79;20302;-77
2021/03/30 08:58:00;;;;;;;;;;;;;;;11.47;64.14;102846.32;1817342;78;21173;-76
2021/03/30 09:00:28;;;;;;;;;;;;;;;11.62;63.58;102840.13;1817522;79;20341;-76
2021/03/30 09:03:04;;;;;;;;;;;;;;;11.76;63.03;102846.17;1817025;78;20285;-75
2021/03/30 09:05:41;;;;;;;;;;;;;;;11.83;61.60;102845.05;1816886;77;20313;-75
2021/03/30 09:08:10;;;;;;;;;;;;;;;11.93;62.63;102838.61;1827724;78;20702;-75
2021/03/30 09:10:40;;;;;;;;;;;;;;;12.15;61.64;102847.75;1832840;77;21184;-75
2021/03/30 09:13:15;;;;;;;;;;;;;;;12.38;60.67;102846.40;1833238;78;20276;-76
2021/03/30 09:15:44;;;;;;;;;;;;;;;12.55;58.36;102845.30;1833918;78;20594;-78
2021/03/30 09:18:26;;;;;;;;;;;;;;;12.66;58.44;102847.48;1833880;78;20190;-73
2021/03/30 09:21:03;;;;;;;;;;;;;;;12.70;58.36;102852.94;1831226;77;20320;-74
2021/03/30 09:23:45;;;;;;;;;;;;;;;12.85;58.83;102843.23;1959058;71;20253;-74
2021/03/30 09:26:15;;;;;;;;;;;;;;;12.88;58.59;102850.92;1915793;74;20165;-77
2021/03/30 09:28:44;;;;;;;;;;;;;;;13.01;57.56;102852.56;1925397;74;22096;-76
2021/03/30 09:31:13;;;;;;;;;;;;;;;13.10;57.61;102855.67;1935846;74;20588;-75
2021/03/30 09:33:46;;;;;;;;;;;;;;;13.18;56.66;102854.02;1898702;74;20615;-79
2021/03/30 09:36:16;;;;;;;;;;;;;;;13.15;55.56;102856.31;1937018;74;20149;-76
2021/03/30 09:38:57;;;;;;;;;;;;;;;13.10;55.60;102847.84;1922909;74;20165;-76
2021/03/30 09:41:41;;;;;;;;;;;;;;;13.05;56.33;102854.14;1921270;74;21340;-77
2021/03/30 09:44:11;;;;;;;;;;;;;;;13.14;57.69;102846.81;1927032;72;20559;-76
2021/03/30 09:46:42;;;;;;;;;;;;;;;13.28;57.46;102847.52;1905729;74;20285;-76
2021/03/30 09:49:16;;;;;;;;;;;;;;;13.41;56.93;102844.77;1922507;72;20440;-79
2021/03/30 09:51:46;;;;;;;;;;;;;;;13.69;55.94;102844.41;1936597;74;20319;-73
2021/03/30 09:54:21;;;;;;;;;;;;;;;14.30;55.42;102845.06;1936996;74;21345;-76
2021/03/30 09:56:58;;;;;;;;;;;;;;;15.33;53.02;102832.99;1905946;72;20258;-77
2021/03/30 09:59:26;;;;;;;;;;;;;;;16.41;48.52;102823.23;1900237;75;20301;-75
2021/03/30 10:01:54;;;;;;;;;;;;;;;16.74;46.02;102829.22;1916601;72;20232;-74
2021/03/30 10:04:24;;;;;;;;;;;;;;;17.43;45.01;102831.23;1921926;74;20276;-75
2021/03/30 10:06:52;;;;;;;;;;;;;;;18.38;43.33;102834.89;1942092;72;21922;-77
2021/03/30 10:09:21;;;;;;;;;;;;;;;19.21;39.35;102833.78;1972047;72;20261;-77
2021/03/30 10:11:52;;;;;;;;;;;;;;;19.16;37.29;102829.29;1971880;72;20720;-77
2021/03/30 10:14:26;;;;;;;;;;;;;;;19.15;38.08;102817.91;1966720;72;20261;-73
2021/03/30 10:16:58;;;;;;;;;;;;;;;20.13;35.70;102822.47;1958839;72;20276;-82
2021/03/30 10:19:26;;;;;;;;;;;;;;;21.47;33.33;102824.66;1941931;72;21340;-75
2021/03/30 10:21:55;;;;;;;;;;;;;;;22.27;31.84;102818.23;1918524;72;20304;-76
2021/03/30 10:24:24;;;;;;;;;;;;;;;22.77;30.80;102823.34;1922289;74;20543;-78
2021/03/30 10:27:04;;;;;;;;;;;;;;;22.39;30.61;102815.90;1956366;72;20281;-76
2021/03/30 10:29:36;;;;;;;;;;;;;;;22.58;30.53;102820.03;1969465;72;20273;-76
2021/03/30 10:32:15;;;;;;;;;;;;;;;23.22;30.19;102816.45;1939702;72;22174;-74
2021/03/30 10:34:57;;;;;;;;;;;;;;;23.37;28.39;102809.34;1938723;72;20884;-72
2021/03/30 10:37:26;;;;;;;;;;;;;;;21.95;30.24;102810.22;1902992;72;20254;-74
2021/03/30 10:39:58;;;;;;;;;;;;;;;22.04;30.65;102809.98;1950783;72;20547;-75
2021/03/30 10:42:29;;;;;;;;;;;;;;;22.20;31.02;102806.94;1963984;72;20234;-75
2021/03/30 10:44:58;;;;;;;;;;;;;;;22.74;30.01;102806.87;1957940;72;21322;-76
2021/03/30 10:47:30;;;;;;;;;;;;;;;23.19;27.96;102806.48;1921046;74;20271;-73
2021/03/30 10:49:58;;;;;;;;;;;;;;;23.41;27.39;102802.00;1946522;72;20566;-78
2021/03/30 10:52:31;;;;;;;;;;;;;;;22.92;27.62;102806.16;1955412;72;20266;-76
2021/03/30 10:54:58;;;;;;;;;;;;;;;22.58;28.48;102809.45;1971248;72;20273;-76
2021/03/30 10:57:27;;;;;;;;;;;;;;;22.56;28.31;102807.39;1938424;72;21174;-75
2021/03/30 10:59:56;;;;;;;;;;;;;;;22.96;27.78;102804.09;1925218;72;20258;-75
2021/03/30 11:02:24;;;;;;;;;;;;;;;23.50;27.25;102787.95;1971401;72;20234;-74
2021/03/30 11:04:51;;;;;;;;;;;;;;;23.96;27.17;102783.41;1972063;72;20166;-75
2021/03/30 11:07:20;;;;;;;;;;;;;;;23.08;27.58;102795.10;1971549;72;20277;-76
2021/03/30 11:09:49;;;;;;;;;;;;;;;22.29;28.50;102793.80;1968108;72;21990;-75
2021/03/30 11:12:21;;;;;;;;;;;;;;;21.38;29.50;102787.89;1969926;72;20175;-81
2021/03/30 11:14:51;;;;;;;;;;;;;;;20.66;30.25;102789.06;1921064;74;20227;-74
2021/03/30 11:17:21;;;;;;;;;;;;;;;19.99;31.25;102791.36;1920414;74;20169;-75
2021/03/30 11:19:49;;;;;;;;;;;;;;;19.96;31.66;102793.36;1920608;74;20309;-76
2021/03/30 11:22:17;;;;;;;;;;;;;;;19.94;31.77;102790.83;1920949;74;21182;-76
2021/03/30 11:24:46;;;;;;;;;;;;;;;19.88;31.52;102793.05;1921244;74;20300;-74
2021/03/30 11:27:15;;;;;;;;;;;;;;;20.45;31.50;102782.77;1921763;74;20217;-73
2021/03/30 11:29:50;;;;;;;;;;;;;;;20.81;30.06;102784.42;1921435;74;20356;-76
2021/03/30 11:37:45;;;;;;;;;;;;;;;20.38;30.32;102780.20;1921807;74;20621;-79
2021/03/30 11:39:53;;;;;;;;;;;;;;;19.97;31.05;102777.42;1912966;74;20261;-78
2021/03/30 11:42:23;;;;;;;;;;;;;;;20.08;31.27;102772.70;1921729;74;20134;-77
2021/03/30 11:44:52;;;;;;;;;;;;;;;19.82;30.92;102770.62;1921884;74;20227;-75
2021/03/30 11:47:20;;;;;;;;;;;;;;;19.43;31.79;102765.57;1921403;74;21146;-75
2021/03/30 11:49:49;;;;;;;;;;;;;;;18.76;32.54;102775.39;1921823;74;20281;-79
2021/03/30 11:52:17;;;;;;;;;;;;;;;18.09;34.05;102771.55;1921724;74;20220;-75
2021/03/30 11:54:46;;;;;;;;;;;;;;;17.32;34.41;102770.22;1921710;74;20400;-75
2021/03/30 11:57:15;;;;;;;;;;;;;;;16.70;35.98;102772.64;1922114;74;20110;-74
2021/03/30 11:59:44;;;;;;;;;;;;;;;16.42;37.06;102767.27;1921488;74;21172;-77
2021/03/30 12:02:12;;;;;;;;;;;;;;;16.38;37.77;102757.89;1921242;74;20312;-75
2021/03/30 12:04:40;;;;;;;;;;;;;;;16.37;37.40;102754.88;1921520;74;20554;-80
2021/03/30 12:07:09;;;;;;;;;;;;;;;16.43;38.00;102755.02;1921550;74;20308;-76
2021/03/30 12:09:41;;;;;;;;;;;;;;;16.33;37.01;102754.70;1917298;74;20252;-76
2021/03/30 12:12:09;;;;;;;;;;;;;;;16.13;37.75;102753.20;1921554;74;21591;-79
2021/03/30 12:14:39;;;;;;;;;;;;;;;15.95;38.02;102750.77;1921768;74;20189;-75
2021/03/30 12:17:06;;;;;;;;;;;;;;;15.69;39.15;102749.12;1921917;74;20248;-74
2021/03/30 12:19:36;;;;;;;;;;;;;;;15.50;39.48;102752.80;1921902;74;20547;-79
2021/03/30 12:22:05;;;;;;;;;;;;;;;15.29;40.17;102741.66;1921755;74;20308;-76
2021/03/30 12:24:33;;;;;;;;;;;;;;;14.99;40.80;102736.28;1921293;74;21422;-76
2021/03/30 12:27:01;;;;;;;;;;;;;;;14.81;41.64;102750.27;1921796;74;20173;-75
2021/03/30 12:29:29;;;;;;;;;;;;;;;14.77;41.66;102748.27;1921131;74;20298;-75
2021/03/30 12:31:59;;;;;;;;;;;;;;;14.82;41.49;102742.36;1921215;74;20592;-76
2021/03/30 12:34:29;;;;;;;;;;;;;;;15.01;41.83;102743.56;1921474;74;20530;-74
2021/03/30 12:36:59;;;;;;;;;;;;;;;15.20;40.35;102742.14;1921403;74;21174;-75
2021/03/30 12:39:28;;;;;;;;;;;;;;;15.23;39.97;102736.75;1921316;74;20269;-77
2021/03/30 12:41:56;;;;;;;;;;;;;;;15.31;39.36;102726.75;1921696;74;20626;-81
2021/03/30 12:44:25;;;;;;;;;;;;;;;15.30;38.70;102732.89;1921666;74;20157;-77
2021/03/30 12:46:53;;;;;;;;;;;;;;;15.14;38.32;102730.70;1921603;74;20566;-78
2021/03/30 12:49:21;;;;;;;;;;;;;;;15.01;38.19;102722.66;1921657;74;22333;-78
2021/03/30 12:51:52;;;;;;;;;;;;;;;14.82;39.11;102734.98;1921405;74;20734;-76
2021/03/30 12:54:20;;;;;;;;;;;;;;;14.69;40.43;102733.45;1921413;74;20193;-75
2021/03/30 12:56:49;;;;;;;;;;;;;;;14.67;41.57;102737.06;1921160;74;20492;-78
2021/03/30 12:59:18;;;;;;;;;;;;;;;14.69;42.02;102727.37;1921063;74;20598;-76
2021/03/30 13:01:47;;;;;;;;;;;;;;;14.92;42.27;102727.05;1921431;74;21109;-76
2021/03/30 13:04:15;;;;;;;;;;;;;;;15.42;40.80;102722.23;1920589;74;20419;-76
2021/03/30 13:06:43;;;;;;;;;;;;;;;15.74;39.07;102729.22;1921355;74;20590;-73
2021/03/30 13:09:12;;;;;;;;;;;;;;;15.77;39.97;102732.52;1921197;74;20315;-75
2021/03/30 13:11:41;;;;;;;;;;;;;;;15.68;40.36;102730.41;1921367;74;20288;-79